createdAt,value
2022-10-19T00:00:00.323Z,1022
2022-10-19T00:05:00.142Z,1022
2022-10-19T00:10:00.268Z,1022
2022-10-19T00:15:00.229Z,1022
2022-10-19T00:20:00.244Z,1022
2022-10-19T00:25:00.201Z,1022
2022-10-19T00:30:00.309Z,1022
2022-10-19T00:35:00.417Z,1022
2022-10-19T00:40:00.320Z,1022
2022-10-19T00:45:00.187Z,1022
2022-10-19T00:50:00.173Z,1022
2022-10-19T00:55:00.275Z,1022
2022-10-19T01:00:00.270Z,1022
2022-10-19T01:05:00.229Z,1022
2022-10-19T01:10:00.252Z,1022
2022-10-19T01:15:00.260Z,1022
2022-10-19T01:20:00.257Z,1022
2022-10-19T01:25:00.286Z,1022
2022-10-19T01:30:00.253Z,1022
2022-10-19T01:35:00.180Z,1022
2022-10-19T01:40:00.227Z,1021
2022-10-19T01:45:00.213Z,1022
2022-10-19T01:50:00.500Z,1022
2022-10-19T01:55:00.220Z,1022
2022-10-19T02:00:00.275Z,1021
2022-10-19T02:05:00.216Z,1022
2022-10-19T02:10:00.393Z,1021
2022-10-19T02:15:00.243Z,1021
2022-10-19T02:20:00.229Z,1021
2022-10-19T02:25:00.223Z,1021
2022-10-19T02:30:00.279Z,1021
2022-10-19T02:35:00.220Z,1021
2022-10-19T02:40:00.193Z,1021
2022-10-19T02:45:00.236Z,1022
2022-10-19T02:50:00.276Z,1022
2022-10-19T02:55:00.221Z,1022
2022-10-19T03:00:00.253Z,1021
2022-10-19T03:05:00.257Z,1021
2022-10-19T03:10:00.233Z,1021
2022-10-19T03:15:00.240Z,1022
2022-10-19T03:20:00.314Z,1021
2022-10-19T03:25:00.302Z,1021
2022-10-19T03:30:00.329Z,1021
2022-10-19T03:35:00.243Z,1021
2022-10-19T03:40:00.282Z,1021
2022-10-19T03:45:00.229Z,1021
2022-10-19T03:50:00.267Z,1021
2022-10-19T03:55:00.206Z,1022
2022-10-19T04:00:00.279Z,1022
2022-10-19T04:05:00.247Z,1021
2022-10-19T04:10:00.269Z,1021
2022-10-19T04:15:00.243Z,1021
2022-10-19T04:20:00.270Z,1021
2022-10-19T04:25:00.244Z,1021
2022-10-19T04:30:00.287Z,1021
2022-10-19T04:35:00.282Z,1021
2022-10-19T04:40:00.292Z,1022
2022-10-19T04:45:00.253Z,1021
2022-10-19T04:50:00.297Z,1021
2022-10-19T04:55:00.251Z,1021
2022-10-19T05:00:00.295Z,1021
2022-10-19T05:05:00.290Z,1021
2022-10-19T05:10:00.284Z,1021
2022-10-19T05:15:00.212Z,1021
2022-10-19T05:20:00.280Z,1021
2022-10-19T05:25:00.198Z,1021
2022-10-19T05:30:00.328Z,1021
2022-10-19T05:35:00.278Z,1021
2022-10-19T05:40:00.300Z,1021
2022-10-19T05:45:00.253Z,1021
2022-10-19T05:50:00.271Z,1021
2022-10-19T05:55:00.326Z,1021
2022-10-19T06:00:00.312Z,1021
2022-10-19T06:05:00.247Z,1021
2022-10-19T06:10:00.299Z,1021
2022-10-19T06:15:00.252Z,1021
2022-10-19T06:20:00.272Z,1021
2022-10-19T06:25:00.301Z,1021
2022-10-19T06:30:00.285Z,1021
2022-10-19T06:35:00.242Z,1021
2022-10-19T06:40:03.560Z,1021
2022-10-19T06:45:00.280Z,1021
2022-10-19T06:50:00.239Z,1021
2022-10-19T06:55:00.227Z,1021
2022-10-19T07:00:00.319Z,1021
2022-10-19T07:05:04.570Z,1021
2022-10-19T07:10:00.265Z,1021
2022-10-19T07:15:00.247Z,1021
2022-10-19T07:20:00.323Z,1021
2022-10-19T07:25:00.271Z,1021
2022-10-19T07:30:00.332Z,1021
2022-10-19T07:35:00.250Z,1021
2022-10-19T07:40:00.273Z,1021
2022-10-19T07:45:00.242Z,1021
2022-10-19T07:50:00.310Z,1021
2022-10-19T07:55:00.259Z,1021
2022-10-19T08:00:00.318Z,1021
2022-10-19T08:05:03.205Z,1021
2022-10-19T08:10:00.303Z,1021
2022-10-19T08:15:00.264Z,1021
2022-10-19T08:20:00.328Z,1021
2022-10-19T08:25:00.243Z,1021
2022-10-19T08:30:00.259Z,1021
2022-10-19T08:35:00.260Z,1021
2022-10-19T08:40:00.272Z,1022
2022-10-19T08:45:00.271Z,1021
2022-10-19T08:50:00.294Z,1021
2022-10-19T08:55:00.315Z,1021
2022-10-19T09:00:00.333Z,1021
2022-10-19T09:05:00.247Z,1021
2022-10-19T09:10:00.234Z,1021
2022-10-19T09:15:00.315Z,1021
2022-10-19T09:20:00.272Z,1021
2022-10-19T09:25:00.276Z,1021
2022-10-19T09:30:00.326Z,1021
2022-10-19T09:35:00.249Z,1021
2022-10-19T09:40:00.301Z,1021
2022-10-19T09:45:00.262Z,1021
2022-10-19T09:50:00.230Z,1021
2022-10-19T09:55:00.210Z,1021
2022-10-19T10:00:00.355Z,1021
2022-10-19T10:05:00.259Z,1021
2022-10-19T10:10:00.314Z,1021
2022-10-19T10:15:00.279Z,1021
2022-10-19T10:20:00.325Z,1021
2022-10-19T10:25:00.273Z,1021
2022-10-19T10:30:00.437Z,1021
2022-10-19T10:35:01.485Z,1021
2022-10-19T10:40:03.550Z,1021
2022-10-19T10:45:00.305Z,1021
2022-10-19T10:50:00.235Z,1020
2022-10-19T10:55:00.261Z,1020
2022-10-19T11:00:00.316Z,1020
2022-10-19T11:05:00.319Z,1020
2022-10-19T11:10:00.266Z,1020
2022-10-19T11:15:00.272Z,1020
2022-10-19T11:20:00.292Z,1020
2022-10-19T11:25:00.277Z,1020
2022-10-19T11:30:00.324Z,1020
2022-10-19T11:35:00.239Z,1020
2022-10-19T11:40:00.240Z,1020
2022-10-19T11:45:00.200Z,1020
2022-10-19T11:50:00.271Z,1019
2022-10-19T11:55:00.257Z,1019
2022-10-19T12:00:08.577Z,1020
2022-10-19T12:05:00.329Z,1019
2022-10-19T12:10:00.299Z,1019
2022-10-19T12:15:00.242Z,1019
2022-10-19T12:20:00.281Z,1019
2022-10-19T12:25:00.209Z,1019
2022-10-19T12:30:00.310Z,1019
2022-10-19T12:35:00.335Z,1019
2022-10-19T12:40:00.286Z,1019
2022-10-19T12:45:00.244Z,1019
2022-10-19T12:50:00.314Z,1019
2022-10-19T12:55:00.297Z,1019
2022-10-19T13:00:00.282Z,1019
2022-10-19T13:05:00.237Z,1019
2022-10-19T13:10:00.465Z,1019
2022-10-19T13:15:00.314Z,1019
2022-10-19T13:20:00.329Z,1018
2022-10-19T13:25:03.594Z,1019
2022-10-19T13:30:00.335Z,1018
2022-10-19T13:35:00.285Z,1018
2022-10-19T13:40:00.290Z,1018
2022-10-19T13:45:00.250Z,1018
2022-10-19T13:50:00.287Z,1018
2022-10-19T13:55:00.274Z,1018
2022-10-19T14:00:00.505Z,1018
2022-10-19T14:05:00.260Z,1018
2022-10-19T14:10:00.298Z,1018
2022-10-19T14:15:00.250Z,1018
2022-10-19T14:20:00.352Z,1018
2022-10-19T14:25:00.258Z,1018
2022-10-19T14:30:00.332Z,1018
2022-10-19T14:35:00.319Z,1018
2022-10-19T14:40:00.306Z,1018
2022-10-19T14:45:00.246Z,1018
2022-10-19T14:50:00.285Z,1018
2022-10-19T14:55:00.205Z,1017
2022-10-19T15:00:00.303Z,1017
2022-10-19T15:05:00.240Z,1017
2022-10-19T15:10:00.280Z,1017
2022-10-19T15:15:00.232Z,1017
2022-10-19T15:20:00.547Z,1017
2022-10-19T15:25:00.243Z,1017
2022-10-19T15:30:00.604Z,1017
2022-10-19T15:35:00.261Z,1017
2022-10-19T15:40:00.384Z,1017
2022-10-19T15:45:00.390Z,1017
2022-10-19T15:50:00.295Z,1017
2022-10-19T15:55:00.256Z,1017
2022-10-19T16:00:00.320Z,1017
2022-10-19T16:05:00.339Z,1017
2022-10-19T16:10:00.293Z,1017
2022-10-19T16:15:00.270Z,1017
2022-10-19T16:20:00.286Z,1017
2022-10-19T16:25:00.298Z,1017
2022-10-19T16:30:00.316Z,1017
2022-10-19T16:35:00.253Z,1017
2022-10-19T16:40:00.290Z,1017
2022-10-19T16:45:00.316Z,1017
2022-10-19T16:50:00.302Z,1017
2022-10-19T16:55:00.210Z,1017
2022-10-19T17:00:00.336Z,1017
2022-10-19T17:05:00.258Z,1017
2022-10-19T17:10:00.437Z,1017
2022-10-19T17:15:29.929Z,1016
2022-10-19T17:20:00.381Z,1016
2022-10-19T17:25:00.698Z,1016
2022-10-19T17:30:00.357Z,1016
2022-10-19T17:35:00.353Z,1016
2022-10-19T17:40:00.297Z,1016
2022-10-19T17:45:00.266Z,1016
2022-10-19T17:50:00.279Z,1016
2022-10-19T17:55:11.676Z,1016
2022-10-19T18:00:00.330Z,1016
2022-10-19T18:05:00.243Z,1016
2022-10-19T18:10:00.365Z,1016
2022-10-19T18:15:00.389Z,1016
2022-10-19T18:20:00.516Z,1016
2022-10-19T18:25:00.472Z,1016
2022-10-19T18:30:00.409Z,1016
2022-10-19T18:35:00.355Z,1016
2022-10-19T18:40:00.362Z,1016
2022-10-19T18:45:00.277Z,1016
2022-10-19T18:50:00.302Z,1016
2022-10-19T18:55:00.254Z,1016
2022-10-19T19:00:00.291Z,1016
2022-10-19T19:05:00.285Z,1016
2022-10-19T19:10:00.283Z,1016
2022-10-19T19:15:00.231Z,1016
2022-10-19T19:20:00.409Z,1016
2022-10-19T19:25:00.447Z,1016
2022-10-19T19:30:00.499Z,1016
2022-10-19T19:35:00.441Z,1016
2022-10-19T19:40:00.359Z,1016
2022-10-19T19:45:00.332Z,1016
2022-10-19T19:50:00.297Z,1015
2022-10-19T20:00:00.323Z,1015
2022-10-19T20:05:00.274Z,1015
2022-10-19T20:10:00.283Z,1015
2022-10-19T20:15:00.253Z,1015
2022-10-19T20:20:00.236Z,1015
2022-10-19T20:25:00.244Z,1015
2022-10-19T20:30:00.385Z,1015
2022-10-19T20:35:00.270Z,1015
2022-10-19T20:40:01.573Z,1015
2022-10-19T20:45:00.236Z,1015
2022-10-19T20:50:00.461Z,1015
2022-10-19T20:55:00.302Z,1015
2022-10-19T21:00:00.244Z,1015
2022-10-19T21:05:00.143Z,1015
2022-10-19T21:10:00.275Z,1015
2022-10-19T21:15:00.257Z,1015
2022-10-19T21:20:00.287Z,1015
2022-10-19T21:25:00.320Z,1015
2022-10-19T21:30:00.222Z,1014
2022-10-19T21:35:00.235Z,1014
2022-10-19T21:40:00.220Z,1014
2022-10-19T21:45:18.368Z,1014
2022-10-19T21:50:00.277Z,1015
2022-10-19T21:55:00.255Z,1014
2022-10-19T22:00:00.338Z,1014
2022-10-19T22:05:00.213Z,1014
2022-10-19T22:10:00.302Z,1014
2022-10-19T22:15:00.177Z,1014
2022-10-19T22:20:00.215Z,1014
2022-10-19T22:25:00.264Z,1014
2022-10-19T22:30:00.235Z,1014
2022-10-19T22:35:00.221Z,1014
2022-10-19T22:40:00.282Z,1014
2022-10-19T22:45:00.209Z,1014
2022-10-19T22:50:00.256Z,1013
2022-10-19T22:55:00.221Z,1013
2022-10-19T23:00:00.241Z,1013
2022-10-19T23:05:00.208Z,1013
2022-10-19T23:10:00.241Z,1013
2022-10-19T23:15:00.222Z,1013
2022-10-19T23:20:00.274Z,1013
2022-10-19T23:25:00.269Z,1013
2022-10-19T23:30:00.279Z,1013
2022-10-19T23:35:00.234Z,1013
2022-10-19T23:40:00.211Z,1013
2022-10-19T23:45:00.208Z,1013
2022-10-19T23:50:00.302Z,1013
2022-10-19T23:55:00.244Z,1013
